Time;durP1;ratioP1;P1;durP2;ratioP2;P2;SDS_P1;SDS_P2;PMS_P1;PMS_P2;Temp;Humidity;BMP_temperature;BMP_pressure;BME280_temperature;BME280_humidity;BME280_pressure;Samples;Min_cycle;Max_cycle;Signal;HPM_P1;HPM_P2
2021/08/07 00:01:38;;;;;;;35.58;8.73;;;;;;;;;;5028254;28;20104;-35
2021/08/07 00:04:05;;;;;;;36.67;9.38;;;;;;;;;;5028177;28;20075;-36
2021/08/07 00:06:32;;;;;;;44.03;8.50;;;;;;;;;;5029487;28;20029;-38
2021/08/07 00:08:59;;;;;;;44.50;9.50;;;;;;;;;;5027383;28;20029;-38
2021/08/07 00:11:26;;;;;;;40.95;9.35;;;;;;;;;;5027078;28;20104;-37
2021/08/07 00:13:56;;;;;;;53.72;9.35;;;;;;;;;;5029511;28;20024;-42
2021/08/07 00:16:23;;;;;;;47.17;9.07;;;;;;;;;;5028281;28;20025;-51
2021/08/07 00:18:50;;;;;;;42.10;8.80;;;;;;;;;;5029717;28;20036;-35
2021/08/07 00:21:18;;;;;;;47.58;10.32;;;;;;;;;;5026916;28;20010;-43
2021/08/07 00:23:45;;;;;;;44.22;10.40;;;;;;;;;;5015245;28;20029;-34
2021/08/07 00:26:12;;;;;;;60.80;11.45;;;;;;;;;;5009391;28;20025;-36
2021/08/07 00:28:42;;;;;;;62.97;12.38;;;;;;;;;;5026792;28;20021;-41
2021/08/07 00:31:11;;;;;;;48.65;10.88;;;;;;;;;;5029075;28;21282;-35
2021/08/07 00:33:38;;;;;;;62.03;11.90;;;;;;;;;;5029505;28;20022;-35
2021/08/07 00:36:05;;;;;;;47.88;10.20;;;;;;;;;;5029890;28;20017;-34
2021/08/07 00:38:35;;;;;;;46.03;10.75;;;;;;;;;;5028864;28;20033;-38
2021/08/07 00:41:04;;;;;;;40.55;9.43;;;;;;;;;;5029310;28;20045;-42
2021/08/07 00:43:33;;;;;;;46.95;11.05;;;;;;;;;;5029424;28;21052;-37
2021/08/07 00:46:00;;;;;;;43.88;10.07;;;;;;;;;;5027652;28;20034;-33
2021/08/07 00:48:33;;;;;;;42.88;10.30;;;;;;;;;;5020430;28;20059;-35
2021/08/07 00:51:34;;;;;;;40.35;9.70;;;;;;;;;;5015107;28;20083;-44
2021/08/07 00:54:02;;;;;;;49.28;11.05;;;;;;;;;;5006289;28;20061;-35
2021/08/07 00:56:29;;;;;;;39.42;10.80;;;;;;;;;;5010411;28;20018;-33
2021/08/07 00:58:56;;;;;;;54.40;10.88;;;;;;;;;;5020634;28;20041;-34
2021/08/07 01:01:26;;;;;;;43.22;11.20;;;;;;;;;;5015002;28;20028;-33
2021/08/07 01:03:54;;;;;;;44.55;10.63;;;;;;;;;;5023349;28;20028;-34
2021/08/07 01:06:41;;;;;;;48.03;11.57;;;;;;;;;;5030211;28;20020;-35
2021/08/07 01:09:08;;;;;;;41.10;11.40;;;;;;;;;;5029613;28;20373;-34
2021/08/07 01:11:39;;;;;;;48.33;12.20;;;;;;;;;;5030146;28;20045;-34
2021/08/07 01:14:08;;;;;;;49.45;12.07;;;;;;;;;;5010704;28;20030;-33
2021/08/07 01:16:39;;;;;;;58.60;12.63;;;;;;;;;;5011225;28;20137;-35
2021/08/07 01:19:11;;;;;;;38.58;12.30;;;;;;;;;;5029569;28;20045;-37
2021/08/07 01:21:39;;;;;;;58.67;14.40;;;;;;;;;;5029893;28;20105;-40
2021/08/07 01:24:10;;;;;;;71.72;15.18;;;;;;;;;;5024595;28;20576;-35
2021/08/07 01:26:37;;;;;;;59.83;15.98;;;;;;;;;;5025314;28;20120;-38
2021/08/07 01:29:08;;;;;;;62.17;16.67;;;;;;;;;;5027607;28;20056;-38
2021/08/07 01:31:35;;;;;;;57.78;16.27;;;;;;;;;;5030449;28;20042;-34
2021/08/07 01:34:02;;;;;;;66.63;16.23;;;;;;;;;;5026750;28;20400;-34
2021/08/07 01:36:31;;;;;;;57.78;16.02;;;;;;;;;;5031239;28;20590;-34
2021/08/07 01:38:58;;;;;;;60.55;15.82;;;;;;;;;;5025516;28;20429;-39
2021/08/07 01:41:25;;;;;;;63.85;16.42;;;;;;;;;;5032320;28;20075;-36
2021/08/07 01:43:52;;;;;;;59.75;15.50;;;;;;;;;;5032334;28;20540;-34
2021/08/07 01:46:20;;;;;;;60.70;16.50;;;;;;;;;;5031917;28;20055;-39
2021/08/07 01:48:52;;;;;;;53.38;14.98;;;;;;;;;;5031671;28;20068;-34
2021/08/07 01:51:22;;;;;;;51.65;14.98;;;;;;;;;;5013623;28;20024;-35
2021/08/07 01:53:51;;;;;;;63.28;15.55;;;;;;;;;;5017945;28;20029;-34
2021/08/07 01:56:29;;;;;;;59.53;15.85;;;;;;;;;;5032428;28;20044;-34
2021/08/07 01:59:02;;;;;;;62.45;14.43;;;;;;;;;;5030726;28;20025;-35
2021/08/07 02:01:31;;;;;;;60.97;15.27;;;;;;;;;;5031996;28;20017;-36
2021/08/07 02:03:59;;;;;;;47.75;13.98;;;;;;;;;;5031948;28;20013;-35
2021/08/07 02:06:27;;;;;;;54.00;14.35;;;;;;;;;;5029551;28;20017;-35
2021/08/07 02:08:55;;;;;;;57.13;14.43;;;;;;;;;;5032058;28;20029;-34
2021/08/07 02:11:22;;;;;;;46.50;13.18;;;;;;;;;;5029721;28;20079;-35
2021/08/07 02:13:50;;;;;;;52.90;14.68;;;;;;;;;;5029500;28;20034;-34
2021/08/07 02:16:18;;;;;;;49.40;14.13;;;;;;;;;;5032181;28;20024;-35
2021/08/07 02:18:46;;;;;;;50.33;13.77;;;;;;;;;;5031712;28;20030;-35
2021/08/07 02:21:14;;;;;;;51.28;14.25;;;;;;;;;;5032029;28;20028;-34
2021/08/07 02:23:41;;;;;;;49.30;13.77;;;;;;;;;;5031037;28;20029;-34
2021/08/07 02:26:09;;;;;;;44.83;12.05;;;;;;;;;;5031429;28;20476;-39
2021/08/07 02:28:36;;;;;;;39.10;12.15;;;;;;;;;;5025300;28;20092;-40
2021/08/07 02:31:05;;;;;;;53.25;13.65;;;;;;;;;;5026100;28;20067;-34
2021/08/07 02:33:32;;;;;;;43.28;12.88;;;;;;;;;;5029893;28;20052;-36
2021/08/07 02:36:00;;;;;;;49.85;12.95;;;;;;;;;;5026313;28;20025;-36
2021/08/07 02:38:28;;;;;;;42.20;12.25;;;;;;;;;;5028406;28;20025;-36
2021/08/07 02:40:59;;;;;;;45.15;12.52;;;;;;;;;;5030192;28;20034;-33
2021/08/07 02:43:27;;;;;;;43.92;12.75;;;;;;;;;;5029851;28;20429;-33
2021/08/07 02:45:54;;;;;;;49.65;12.75;;;;;;;;;;5031681;28;20024;-33
2021/08/07 02:48:22;;;;;;;39.63;11.07;;;;;;;;;;5031118;28;20025;-33
2021/08/07 02:50:49;;;;;;;40.60;11.70;;;;;;;;;;5030430;28;20022;-33
2021/08/07 02:53:17;;;;;;;41.35;11.70;;;;;;;;;;5030010;28;20013;-37
2021/08/07 02:55:45;;;;;;;42.72;12.13;;;;;;;;;;5031339;28;20021;-33
2021/08/07 02:58:12;;;;;;;45.17;11.75;;;;;;;;;;5030732;28;20075;-34
2021/08/07 03:00:39;;;;;;;40.88;11.68;;;;;;;;;;5031308;28;20025;-34
2021/08/07 03:03:07;;;;;;;37.13;11.48;;;;;;;;;;5030827;28;20389;-35
2021/08/07 03:05:34;;;;;;;41.35;11.32;;;;;;;;;;5031300;28;20030;-38
2021/08/07 03:08:01;;;;;;;40.63;11.32;;;;;;;;;;5030749;28;20837;-34
2021/08/07 03:10:28;;;;;;;33.92;11.75;;;;;;;;;;5031079;28;20051;-35
2021/08/07 03:12:57;;;;;;;32.88;11.20;;;;;;;;;;5030662;28;20029;-34
2021/08/07 03:15:24;;;;;;;36.50;11.32;;;;;;;;;;5031114;28;20079;-34
2021/08/07 03:17:52;;;;;;;33.88;11.23;;;;;;;;;;5030983;28;20028;-34
2021/08/07 03:20:20;;;;;;;36.28;11.80;;;;;;;;;;5030029;28;20064;-41
2021/08/07 03:22:47;;;;;;;33.45;10.65;;;;;;;;;;5030449;28;20469;-34
2021/08/07 03:25:14;;;;;;;32.58;10.93;;;;;;;;;;5030492;28;20380;-35
2021/08/07 03:27:41;;;;;;;41.92;11.00;;;;;;;;;;5030911;28;20461;-38
2021/08/07 03:30:09;;;;;;;30.80;11.15;;;;;;;;;;5030650;28;20053;-39
2021/08/07 03:32:36;;;;;;;34.85;10.90;;;;;;;;;;5031479;28;20036;-35
2021/08/07 03:35:05;;;;;;;31.52;11.60;;;;;;;;;;5030699;28;20024;-50
2021/08/07 03:37:32;;;;;;;36.28;10.60;;;;;;;;;;5031907;28;20112;-51
2021/08/07 03:39:59;;;;;;;31.88;10.88;;;;;;;;;;5030716;28;20037;-46
2021/08/07 03:42:26;;;;;;;34.10;11.07;;;;;;;;;;5031684;28;20028;-48
2021/08/07 03:44:55;;;;;;;35.67;10.38;;;;;;;;;;5030829;28;20606;-35
2021/08/07 03:47:22;;;;;;;36.13;11.82;;;;;;;;;;5031417;28;20032;-45
2021/08/07 03:49:50;;;;;;;40.78;11.57;;;;;;;;;;5030419;28;20030;-40
2021/08/07 03:52:17;;;;;;;36.83;12.15;;;;;;;;;;5030247;28;20358;-35
2021/08/07 03:54:44;;;;;;;40.47;11.75;;;;;;;;;;5030840;28;20029;-35
2021/08/07 03:57:11;;;;;;;36.13;12.10;;;;;;;;;;5031033;28;20032;-39
2021/08/07 03:59:38;;;;;;;39.60;11.95;;;;;;;;;;5030982;28;20033;-43
2021/08/07 04:02:05;;;;;;;33.92;11.20;;;;;;;;;;5030956;28;20030;-35
2021/08/07 04:04:32;;;;;;;36.72;12.60;;;;;;;;;;5030830;28;20067;-43
2021/08/07 04:06:59;;;;;;;36.70;11.05;;;;;;;;;;5030668;28;20025;-37
2021/08/07 04:09:26;;;;;;;38.15;11.80;;;;;;;;;;5031164;28;20021;-35
2021/08/07 04:11:53;;;;;;;40.45;11.93;;;;;;;;;;5030733;28;20048;-35
2021/08/07 04:14:20;;;;;;;41.47;11.93;;;;;;;;;;5031043;28;20025;-34
2021/08/07 04:16:47;;;;;;;39.33;11.50;;;;;;;;;;5030287;28;20369;-35
2021/08/07 04:19:14;;;;;;;39.63;10.98;;;;;;;;;;5030730;28;20033;-37
2021/08/07 04:21:41;;;;;;;34.85;11.50;;;;;;;;;;5030829;28;20481;-38
2021/08/07 04:24:08;;;;;;;39.67;11.65;;;;;;;;;;5030319;28;20087;-40
2021/08/07 04:26:35;;;;;;;35.08;11.90;;;;;;;;;;5030601;28;20377;-37
2021/08/07 04:29:02;;;;;;;41.40;11.65;;;;;;;;;;5030217;28;20049;-37
2021/08/07 04:31:29;;;;;;;35.92;11.57;;;;;;;;;;5030798;28;20091;-38
2021/08/07 04:33:56;;;;;;;35.72;10.68;;;;;;;;;;5029988;28;20052;-39
2021/08/07 04:36:23;;;;;;;41.05;11.70;;;;;;;;;;5030464;28;20017;-35
2021/08/07 04:38:50;;;;;;;32.83;11.25;;;;;;;;;;5030329;28;20508;-35
2021/08/07 04:41:17;;;;;;;34.95;11.27;;;;;;;;;;5030745;28;20381;-34
2021/08/07 04:43:44;;;;;;;38.78;11.63;;;;;;;;;;5030236;28;20060;-34
2021/08/07 04:46:11;;;;;;;38.42;11.10;;;;;;;;;;5012948;28;20160;-34
2021/08/07 04:48:38;;;;;;;38.30;11.65;;;;;;;;;;5029948;28;20009;-37
2021/08/07 04:51:06;;;;;;;28.23;11.50;;;;;;;;;;5030838;28;20104;-34
2021/08/07 04:53:33;;;;;;;39.42;10.88;;;;;;;;;;5029972;28;20032;-35
2021/08/07 04:56:00;;;;;;;38.30;11.07;;;;;;;;;;5030287;28;20053;-34
2021/08/07 04:58:27;;;;;;;35.63;11.05;;;;;;;;;;5030251;28;20101;-37
2021/08/07 05:00:54;;;;;;;34.03;11.40;;;;;;;;;;5030247;28;20021;-34
2021/08/07 05:03:20;;;;;;;30.75;11.15;;;;;;;;;;5031192;28;20026;-34
2021/08/07 05:05:47;;;;;;;43.92;11.45;;;;;;;;;;5033695;28;20084;-34
2021/08/07 05:08:15;;;;;;;35.30;11.52;;;;;;;;;;5034149;28;20449;-34
2021/08/07 05:10:43;;;;;;;30.02;11.23;;;;;;;;;;5033426;28;20093;-35
2021/08/07 05:13:10;;;;;;;28.70;10.60;;;;;;;;;;5034174;28;20092;-34
2021/08/07 05:15:37;;;;;;;36.30;11.50;;;;;;;;;;5033518;28;20048;-35
2021/08/07 05:18:05;;;;;;;35.83;11.60;;;;;;;;;;5033756;28;20107;-34
2021/08/07 05:20:32;;;;;;;34.67;11.15;;;;;;;;;;5033496;28;20040;-34
2021/08/07 05:22:59;;;;;;;28.17;11.07;;;;;;;;;;5034374;28;20013;-34
2021/08/07 05:25:26;;;;;;;29.45;10.43;;;;;;;;;;5033578;28;20461;-36
2021/08/07 05:27:53;;;;;;;36.10;11.05;;;;;;;;;;5033632;28;20009;-34
2021/08/07 05:30:20;;;;;;;43.42;10.80;;;;;;;;;;5033376;28;20049;-38
2021/08/07 05:32:47;;;;;;;32.45;10.23;;;;;;;;;;5033737;28;20024;-33
2021/08/07 05:35:14;;;;;;;36.25;10.52;;;;;;;;;;5033834;28;20029;-34
2021/08/07 05:37:41;;;;;;;27.55;10.23;;;;;;;;;;5033113;28;20068;-35
2021/08/07 05:40:09;;;;;;;35.40;10.23;;;;;;;;;;5033681;28;20113;-34
2021/08/07 05:42:36;;;;;;;27.58;10.30;;;;;;;;;;5031971;28;20025;-34
2021/08/07 05:45:03;;;;;;;29.33;10.05;;;;;;;;;;5033515;28;20577;-34
2021/08/07 05:47:30;;;;;;;31.00;9.93;;;;;;;;;;5033407;28;20022;-35
2021/08/07 05:49:58;;;;;;;25.60;9.75;;;;;;;;;;5033517;28;20338;-34
2021/08/07 05:52:26;;;;;;;26.58;9.32;;;;;;;;;;5032975;28;20060;-35
2021/08/07 05:54:54;;;;;;;25.02;9.25;;;;;;;;;;5033267;28;20097;-35
2021/08/07 05:57:21;;;;;;;23.27;9.82;;;;;;;;;;5032842;28;20049;-35
2021/08/07 05:59:48;;;;;;;27.55;9.70;;;;;;;;;;5033273;28;20037;-34
2021/08/07 06:02:15;;;;;;;26.75;9.50;;;;;;;;;;5032756;28;20032;-35
2021/08/07 06:04:42;;;;;;;26.50;8.75;;;;;;;;;;5033157;28;20017;-35
2021/08/07 06:07:09;;;;;;;27.75;9.73;;;;;;;;;;5032176;28;20041;-34
2021/08/07 06:09:36;;;;;;;26.65;9.15;;;;;;;;;;5093690;22;20065;-39
2021/08/07 06:12:03;;;;;;;33.72;9.55;;;;;;;;;;5011406;28;20030;-37
2021/08/07 06:14:30;;;;;;;29.60;9.68;;;;;;;;;;4995846;28;20172;-35
2021/08/07 06:16:57;;;;;;;29.75;9.10;;;;;;;;;;5013403;28;20030;-34
2021/08/07 06:19:24;;;;;;;31.17;9.73;;;;;;;;;;5013499;28;20034;-35
2021/08/07 06:21:51;;;;;;;25.02;9.73;;;;;;;;;;5013192;28;20029;-33
2021/08/07 06:24:18;;;;;;;27.73;8.73;;;;;;;;;;5013273;28;20033;-34
2021/08/07 06:26:45;;;;;;;32.75;8.82;;;;;;;;;;5013639;28;20374;-34
2021/08/07 06:29:12;;;;;;;28.40;9.38;;;;;;;;;;4999470;28;20080;-36
2021/08/07 06:31:39;;;;;;;27.58;8.70;;;;;;;;;;5013356;28;20046;-33
2021/08/07 06:34:06;;;;;;;24.58;9.27;;;;;;;;;;5012795;28;20453;-37
2021/08/07 06:36:34;;;;;;;19.98;7.90;;;;;;;;;;5013053;28;20420;-34
2021/08/07 06:39:01;;;;;;;23.17;9.38;;;;;;;;;;5012850;28;20076;-34
2021/08/07 06:41:28;;;;;;;25.10;8.63;;;;;;;;;;5012199;28;20469;-38
2021/08/07 06:43:55;;;;;;;21.52;8.68;;;;;;;;;;5012592;28;20076;-36
2021/08/07 06:46:22;;;;;;;23.48;9.10;;;;;;;;;;5013337;28;20045;-36
2021/08/07 06:48:49;;;;;;;19.15;9.00;;;;;;;;;;5012595;28;20025;-34
2021/08/07 06:51:16;;;;;;;22.25;8.63;;;;;;;;;;5013012;28;20493;-34
2021/08/07 06:53:45;;;;;;;17.45;8.20;;;;;;;;;;5012793;28;20121;-34
2021/08/07 06:56:12;;;;;;;24.38;8.52;;;;;;;;;;5012766;28;20029;-34
2021/08/07 06:58:39;;;;;;;23.58;8.93;;;;;;;;;;5012581;28;20090;-38
2021/08/07 07:01:06;;;;;;;19.45;8.00;;;;;;;;;;4994767;28;20485;-37
2021/08/07 07:03:33;;;;;;;22.50;8.32;;;;;;;;;;5012911;28;20033;-35
2021/08/07 07:06:00;;;;;;;23.13;8.52;;;;;;;;;;5012633;28;20050;-35
2021/08/07 07:08:27;;;;;;;22.08;8.60;;;;;;;;;;5007906;28;20037;-35
2021/08/07 07:10:55;;;;;;;22.65;7.82;;;;;;;;;;4992737;28;20043;-35
2021/08/07 07:13:22;;;;;;;22.02;8.52;;;;;;;;;;4993182;28;20029;-34
2021/08/07 07:15:49;;;;;;;21.35;7.88;;;;;;;;;;4992598;28;20022;-37
2021/08/07 07:18:16;;;;;;;21.27;8.45;;;;;;;;;;4992788;28;20026;-35
2021/08/07 07:20:43;;;;;;;26.10;8.25;;;;;;;;;;4993034;28;20038;-34
2021/08/07 07:23:12;;;;;;;17.73;7.25;;;;;;;;;;4992417;28;20026;-34
2021/08/07 07:25:39;;;;;;;17.08;7.65;;;;;;;;;;4990682;28;20030;-38
2021/08/07 07:28:06;;;;;;;15.70;7.63;;;;;;;;;;4991531;28;20050;-34
2021/08/07 07:30:33;;;;;;;22.20;7.30;;;;;;;;;;4992306;28;20030;-34
2021/08/07 07:33:00;;;;;;;18.85;8.45;;;;;;;;;;4992374;28;20033;-35
2021/08/07 07:35:27;;;;;;;15.45;7.03;;;;;;;;;;4992766;28;20456;-35
2021/08/07 07:37:54;;;;;;;18.33;7.55;;;;;;;;;;4992000;28;20077;-37
2021/08/07 07:40:21;;;;;;;19.20;7.80;;;;;;;;;;4992539;28;20451;-39
2021/08/07 07:42:48;;;;;;;17.23;7.53;;;;;;;;;;4992109;28;20018;-35
2021/08/07 07:45:16;;;;;;;18.73;8.40;;;;;;;;;;4992762;28;20030;-35
2021/08/07 07:47:42;;;;;;;17.75;8.02;;;;;;;;;;4992084;28;20052;-34
2021/08/07 07:50:10;;;;;;;16.67;6.95;;;;;;;;;;4992469;28;20033;-35
2021/08/07 07:52:37;;;;;;;18.27;7.57;;;;;;;;;;4975393;28;20054;-35
2021/08/07 07:55:04;;;;;;;21.42;6.95;;;;;;;;;;4991894;28;20022;-37
2021/08/07 07:57:31;;;;;;;12.27;6.43;;;;;;;;;;4992756;28;20026;-45
2021/08/07 07:59:58;;;;;;;17.08;6.47;;;;;;;;;;4973935;28;20069;-34
2021/08/07 08:02:25;;;;;;;15.85;7.10;;;;;;;;;;4992323;28;20424;-37
2021/08/07 08:04:52;;;;;;;16.10;7.10;;;;;;;;;;4991858;28;20061;-34
2021/08/07 08:07:19;;;;;;;20.00;7.13;;;;;;;;;;4992244;28;20023;-34
2021/08/07 08:09:46;;;;;;;15.63;6.30;;;;;;;;;;4990975;28;20386;-40
2021/08/07 08:12:13;;;;;;;19.73;6.80;;;;;;;;;;4992583;28;20026;-34
2021/08/07 08:14:40;;;;;;;13.27;6.43;;;;;;;;;;4991839;28;20026;-35
2021/08/07 08:17:07;;;;;;;19.35;6.78;;;;;;;;;;4992247;28;20082;-35
2021/08/07 08:19:36;;;;;;;15.40;6.57;;;;;;;;;;4991495;28;20042;-35
2021/08/07 08:22:04;;;;;;;12.10;6.43;;;;;;;;;;4992177;28;20010;-34
2021/08/07 08:24:31;;;;;;;14.18;7.10;;;;;;;;;;4992050;28;20488;-33
2021/08/07 08:26:58;;;;;;;13.90;6.22;;;;;;;;;;4991791;28;20413;-35
2021/08/07 08:29:25;;;;;;;13.38;6.20;;;;;;;;;;4974495;28;20411;-35
2021/08/07 08:31:52;;;;;;;14.82;6.40;;;;;;;;;;4991391;28;20057;-34
2021/08/07 08:34:19;;;;;;;13.52;5.93;;;;;;;;;;4991933;28;20038;-35
2021/08/07 08:36:46;;;;;;;14.50;6.20;;;;;;;;;;4991684;28;20027;-34
2021/08/07 08:39:13;;;;;;;13.80;6.10;;;;;;;;;;4995669;28;20525;-34
2021/08/07 08:41:40;;;;;;;13.32;6.00;;;;;;;;;;4995669;28;20027;-34
2021/08/07 08:44:07;;;;;;;12.07;6.25;;;;;;;;;;4996014;28;20022;-34
2021/08/07 08:46:36;;;;;;;9.63;5.70;;;;;;;;;;4994955;28;20023;-34
2021/08/07 08:49:04;;;;;;;13.00;5.75;;;;;;;;;;4995784;28;20433;-34
2021/08/07 08:51:31;;;;;;;11.65;6.43;;;;;;;;;;4995466;28;20022;-34
2021/08/07 08:53:58;;;;;;;12.30;6.10;;;;;;;;;;4995323;28;20041;-34
2021/08/07 08:56:30;;;;;;;10.85;5.75;;;;;;;;;;4978351;28;20053;-34
2021/08/07 08:58:57;;;;;;;;;;;;;;;;;;4995709;28;20038;-35
2021/08/07 09:01:24;;;;;;;10.77;6.03;;;;;;;;;;4995455;28;19918;-34
2021/08/07 09:03:51;;;;;;;11.02;5.43;;;;;;;;;;4994456;28;20018;-34
2021/08/07 09:06:18;;;;;;;11.07;6.07;;;;;;;;;;4995871;28;20050;-34
2021/08/07 09:09:02;;;;;;;9.50;5.88;;;;;;;;;;4994567;28;20488;-34
2021/08/07 09:11:29;;;;;;;8.88;5.22;;;;;;;;;;4995015;28;20038;-34
2021/08/07 09:14:15;;;;;;;11.98;5.47;;;;;;;;;;4994643;28;20027;-34
2021/08/07 09:17:05;;;;;;;13.57;5.93;;;;;;;;;;4995237;28;20058;-34
2021/08/07 09:19:41;;;;;;;10.95;5.63;;;;;;;;;;4994553;28;20034;-34
2021/08/07 09:22:09;;;;;;;11.80;5.30;;;;;;;;;;4995311;28;20489;-34
2021/08/07 09:24:53;;;;;;;13.70;5.38;;;;;;;;;;4994774;28;20744;-35
2021/08/07 09:27:29;;;;;;;10.27;4.93;;;;;;;;;;4995460;28;20023;-41
2021/08/07 09:29:56;;;;;;;11.57;4.65;;;;;;;;;;4994435;28;20109;-34
2021/08/07 09:32:23;;;;;;;10.93;5.13;;;;;;;;;;4977728;28;20474;-34
2021/08/07 09:35:09;;;;;;;10.93;5.20;;;;;;;;;;4993823;28;20030;-33
2021/08/07 09:37:37;;;;;;;7.78;4.70;;;;;;;;;;4995050;28;20105;-36
2021/08/07 09:40:08;;;;;;;8.50;4.80;;;;;;;;;;4993938;28;20034;-35
2021/08/07 09:42:49;;;;;;;9.48;4.47;;;;;;;;;;4994711;28;20018;-34
2021/08/07 09:45:16;;;;;;;10.35;4.70;;;;;;;;;;4994655;28;20022;-34
2021/08/07 09:47:46;;;;;;;10.32;4.70;;;;;;;;;;4994551;28;20057;-34
2021/08/07 09:50:23;;;;;;;13.90;4.60;;;;;;;;;;4994147;28;20109;-35
2021/08/07 09:52:50;;;;;;;9.52;4.75;;;;;;;;;;4994253;28;20050;-48
2021/08/07 09:55:17;;;;;;;9.80;4.90;;;;;;;;;;4994837;28;20512;-34
2021/08/07 09:57:44;;;;;;;7.85;4.40;;;;;;;;;;4994277;28;20023;-34
2021/08/07 10:00:12;;;;;;;8.40;5.03;;;;;;;;;;4994247;28;20039;-34
2021/08/07 10:02:39;;;;;;;10.15;4.25;;;;;;;;;;4993919;28;20385;-35
2021/08/07 10:05:08;;;;;;;8.93;4.40;;;;;;;;;;4994616;28;20030;-35
2021/08/07 10:07:36;;;;;;;11.55;5.15;;;;;;;;;;4993904;28;20017;-35
2021/08/07 10:10:03;;;;;;;6.00;4.30;;;;;;;;;;4993951;28;20046;-33
2021/08/07 10:12:30;;;;;;;8.65;4.32;;;;;;;;;;4993402;28;20117;-34
2021/08/07 10:14:57;;;;;;;10.70;4.97;;;;;;;;;;4994377;28;20023;-35
2021/08/07 10:17:26;;;;;;;8.18;4.50;;;;;;;;;;4993924;28;20041;-33
2021/08/07 10:19:53;;;;;;;7.18;4.60;;;;;;;;;;4994018;28;20414;-34
2021/08/07 10:22:20;;;;;;;9.77;4.47;;;;;;;;;;4994053;28;20026;-34
2021/08/07 10:24:48;;;;;;;9.82;4.05;;;;;;;;;;4993398;28;20034;-35
2021/08/07 10:27:18;;;;;;;9.65;4.10;;;;;;;;;;4993682;28;20359;-34
2021/08/07 10:29:47;;;;;;;8.98;4.40;;;;;;;;;;4994031;28;20101;-35
2021/08/07 10:32:15;;;;;;;7.45;4.20;;;;;;;;;;4993886;28;20022;-34
2021/08/07 10:34:45;;;;;;;8.68;3.60;;;;;;;;;;4993383;28;20093;-34
2021/08/07 10:37:12;;;;;;;7.28;3.88;;;;;;;;;;4994223;28;20034;-36
2021/08/07 10:39:39;;;;;;;6.80;3.80;;;;;;;;;;4993380;28;20486;-34
2021/08/07 10:42:07;;;;;;;7.65;3.90;;;;;;;;;;4993400;28;20026;-34
2021/08/07 10:44:35;;;;;;;6.43;3.63;;;;;;;;;;4993148;28;20030;-33
2021/08/07 10:47:02;;;;;;;7.70;4.00;;;;;;;;;;4993683;28;20026;-35
2021/08/07 10:49:42;;;;;;;6.25;3.85;;;;;;;;;;4993569;28;20077;-33
2021/08/07 10:52:22;;;;;;;5.70;3.80;;;;;;;;;;4993205;28;20030;-34
2021/08/07 10:54:52;;;;;;;6.05;3.40;;;;;;;;;;4993327;28;20510;-35
2021/08/07 10:57:34;;;;;;;6.00;3.33;;;;;;;;;;4975946;28;20018;-34
2021/08/07 11:00:02;;;;;;;5.45;3.40;;;;;;;;;;4993159;28;20037;-35
2021/08/07 11:02:29;;;;;;;6.22;3.38;;;;;;;;;;4992105;28;20026;-34
2021/08/07 11:04:56;;;;;;;3.85;3.13;;;;;;;;;;4993342;28;20026;-34
2021/08/07 11:07:23;;;;;;;10.63;4.15;;;;;;;;;;4992445;28;20560;-34
2021/08/07 11:10:13;;;;;;;9.63;3.38;;;;;;;;;;4992892;28;20042;-33
2021/08/07 11:12:42;;;;;;;8.60;3.30;;;;;;;;;;4992496;28;20398;-34
2021/08/07 11:15:16;;;;;;;7.38;3.20;;;;;;;;;;4993118;28;20038;-34
2021/08/07 11:17:45;;;;;;;6.93;3.40;;;;;;;;;;4992524;28;20023;-35
2021/08/07 11:20:13;;;;;;;5.43;3.22;;;;;;;;;;4993325;28;20041;-34
2021/08/07 11:22:41;;;;;;;7.38;3.30;;;;;;;;;;4974890;28;20423;-33
2021/08/07 11:25:18;;;;;;;5.35;2.78;;;;;;;;;;4992652;28;20034;-34
2021/08/07 11:27:49;;;;;;;3.63;2.80;;;;;;;;;;4992288;28;20079;-34
2021/08/07 11:30:26;;;;;;;3.92;2.70;;;;;;;;;;4992913;28;20065;-36
2021/08/07 11:33:00;;;;;;;4.78;2.75;;;;;;;;;;4991731;28;20030;-34
2021/08/07 11:35:41;;;;;;;5.85;3.28;;;;;;;;;;4992769;28;20034;-34
2021/08/07 11:40:51;;;;;;;4.38;2.95;;;;;;;;;;4992278;28;20049;-37
2021/08/07 11:43:21;;;;;;;5.70;3.08;;;;;;;;;;4992301;28;20164;-34
2021/08/07 11:46:08;;;;;;;5.38;2.90;;;;;;;;;;4992744;28;20061;-34
2021/08/07 11:48:45;;;;;;;5.05;2.63;;;;;;;;;;4992087;28;20132;-34
2021/08/07 11:51:14;;;;;;;6.60;2.60;;;;;;;;;;4992264;28;20406;-34
2021/08/07 11:53:43;;;;;;;4.05;2.60;;;;;;;;;;4992025;28;20025;-33
2021/08/07 11:56:14;;;;;;;3.33;2.42;;;;;;;;;;4992513;28;20402;-34
2021/08/07 11:58:45;;;;;;;4.47;2.83;;;;;;;;;;4992364;28;20018;-35
2021/08/07 12:01:12;;;;;;;5.20;2.78;;;;;;;;;;4992005;28;20030;-35
2021/08/07 12:03:43;;;;;;;5.07;2.40;;;;;;;;;;4992218;28;20029;-35
2021/08/07 12:06:10;;;;;;;4.18;2.42;;;;;;;;;;4991714;28;20030;-34
2021/08/07 12:08:38;;;;;;;4.80;2.60;;;;;;;;;;4991731;28;20019;-34
2021/08/07 12:11:06;;;;;;;3.50;2.30;;;;;;;;;;4991788;28;20036;-35
2021/08/07 12:13:35;;;;;;;3.17;2.20;;;;;;;;;;4991931;28;20026;-34
2021/08/07 12:16:06;;;;;;;3.80;2.30;;;;;;;;;;4992002;28;20133;-34
2021/08/07 12:18:47;;;;;;;2.13;1.80;;;;;;;;;;4991531;28;20034;-34
2021/08/07 12:21:15;;;;;;;2.75;2.15;;;;;;;;;;4991769;28;20121;-36
2021/08/07 12:23:43;;;;;;;4.22;2.10;;;;;;;;;;4991735;28;20153;-35
2021/08/07 12:26:10;;;;;;;4.05;2.35;;;;;;;;;;4991841;28;20391;-34
2021/08/07 12:28:39;;;;;;;3.15;2.05;;;;;;;;;;4991942;28;20030;-36
2021/08/07 12:31:06;;;;;;;4.18;1.95;;;;;;;;;;4991637;28;20026;-33
2021/08/07 12:33:34;;;;;;;5.93;2.40;;;;;;;;;;4992017;28;20026;-36
2021/08/07 12:36:10;;;;;;;3.47;1.70;;;;;;;;;;4991625;28;20036;-35
2021/08/07 12:38:40;;;;;;;3.22;2.15;;;;;;;;;;4991945;28;20073;-35
2021/08/07 12:41:07;;;;;;;4.05;2.00;;;;;;;;;;4991460;28;20014;-33
2021/08/07 12:43:35;;;;;;;5.10;2.30;;;;;;;;;;4991838;28;20027;-34
2021/08/07 12:46:04;;;;;;;4.78;1.95;;;;;;;;;;4991741;28;20033;-35
2021/08/07 12:48:49;;;;;;;3.10;1.83;;;;;;;;;;4991237;28;20010;-34
2021/08/07 12:51:23;;;;;;;3.58;1.80;;;;;;;;;;4991945;28;20041;-34
2021/08/07 12:53:51;;;;;;;2.78;1.70;;;;;;;;;;4991287;28;20513;-35
2021/08/07 12:56:18;;;;;;;6.15;1.85;;;;;;;;;;4991699;28;20088;-39
2021/08/07 12:59:02;;;;;;;4.60;1.80;;;;;;;;;;4991070;28;20096;-33
2021/08/07 13:01:29;;;;;;;7.75;2.00;;;;;;;;;;4978801;28;20018;-33
2021/08/07 13:03:57;;;;;;;4.18;1.88;;;;;;;;;;4990368;28;20029;-42
2021/08/07 13:06:25;;;;;;;3.63;1.80;;;;;;;;;;4988316;28;20038;-33
2021/08/07 13:08:52;;;;;;;4.70;1.90;;;;;;;;;;4990066;28;20027;-34
2021/08/07 13:11:21;;;;;;;5.10;1.70;;;;;;;;;;4990075;28;20579;-33
2021/08/07 13:13:50;;;;;;;3.90;1.73;;;;;;;;;;4986711;28;20038;-33
2021/08/07 13:16:36;;;;;;;2.67;1.50;;;;;;;;;;4990294;28;20022;-34
2021/08/07 13:19:19;;;;;;;3.67;1.60;;;;;;;;;;4987081;28;20537;-33
2021/08/07 13:21:50;;;;;;;2.63;1.50;;;;;;;;;;4989414;28;20041;-34
2021/08/07 13:24:29;;;;;;;10.55;1.80;;;;;;;;;;4990619;28;20026;-33
2021/08/07 13:26:57;;;;;;;6.68;1.90;;;;;;;;;;4990303;28;20038;-34
2021/08/07 13:29:24;;;;;;;4.35;1.48;;;;;;;;;;4990310;28;20037;-34
2021/08/07 13:31:52;;;;;;;5.63;1.60;;;;;;;;;;4992328;28;20062;-34
2021/08/07 13:34:19;;;;;;;5.07;1.58;;;;;;;;;;4987214;28;20023;-33
2021/08/07 13:36:46;;;;;;;5.38;1.70;;;;;;;;;;4989906;28;20490;-33
2021/08/07 13:39:14;;;;;;;6.38;1.40;;;;;;;;;;4993151;28;20041;-33
2021/08/07 13:41:42;;;;;;;2.67;1.23;;;;;;;;;;4992337;28;20703;-33
2021/08/07 13:44:09;;;;;;;5.47;1.45;;;;;;;;;;4992911;28;20026;-34
2021/08/07 13:46:36;;;;;;;5.72;1.25;;;;;;;;;;4996937;28;20061;-33
2021/08/07 13:49:04;;;;;;;8.30;1.55;;;;;;;;;;4991530;28;20061;-33
2021/08/07 13:51:32;;;;;;;4.30;1.38;;;;;;;;;;4989880;28;20552;-33
2021/08/07 13:53:59;;;;;;;5.75;1.30;;;;;;;;;;4996912;28;20064;-33
2021/08/07 13:56:28;;;;;;;3.78;1.42;;;;;;;;;;4991978;28;20057;-33
2021/08/07 13:58:55;;;;;;;5.68;1.70;;;;;;;;;;4991785;28;20042;-34
2021/08/07 14:01:23;;;;;;;6.35;1.33;;;;;;;;;;4994470;28;20022;-33
2021/08/07 14:03:52;;;;;;;4.22;1.20;;;;;;;;;;4994060;28;20109;-38
2021/08/07 14:06:20;;;;;;;5.22;1.35;;;;;;;;;;4994045;28;20382;-33
2021/08/07 14:08:48;;;;;;;8.23;1.70;;;;;;;;;;4988058;28;20030;-34
2021/08/07 14:11:16;;;;;;;6.47;1.52;;;;;;;;;;4991496;28;20034;-33
2021/08/07 14:13:43;;;;;;;5.28;1.40;;;;;;;;;;4990611;28;20029;-34
2021/08/07 14:16:10;;;;;;;12.05;1.13;;;;;;;;;;4991592;28;20501;-36
2021/08/07 14:18:37;;;;;;;19.05;1.52;;;;;;;;;;4987162;28;20062;-34
2021/08/07 14:21:04;;;;;;;8.48;1.60;;;;;;;;;;4991822;28;20034;-35
2021/08/07 14:23:31;;;;;;;12.43;1.55;;;;;;;;;;4990485;28;20387;-35
2021/08/07 14:25:59;;;;;;;9.20;1.50;;;;;;;;;;4992744;28;20557;-34
2021/08/07 14:28:26;;;;;;;7.05;1.50;;;;;;;;;;4990680;28;20033;-34
2021/08/07 14:30:53;;;;;;;9.98;1.50;;;;;;;;;;4991686;28;20073;-38
2021/08/07 14:33:20;;;;;;;14.02;1.55;;;;;;;;;;4988920;28;20035;-38
2021/08/07 14:35:47;;;;;;;14.10;1.77;;;;;;;;;;4977297;28;20451;-33
2021/08/07 14:38:14;;;;;;;17.17;1.95;;;;;;;;;;4989163;28;20030;-33
2021/08/07 14:40:41;;;;;;;31.08;2.10;;;;;;;;;;4986616;28;20068;-33